createdAt,value
2023-01-19T00:02:17.592Z,1.23
2023-01-19T00:06:19.355Z,1.18
2023-01-19T00:10:20.848Z,1.39
2023-01-19T00:14:22.364Z,1.19
2023-01-19T00:18:24.207Z,1.35
2023-01-19T00:22:25.663Z,1.12
2023-01-19T00:26:27.211Z,1.25
2023-01-19T00:30:28.915Z,1.37
2023-01-19T00:34:36.757Z,1.24
2023-01-19T00:38:38.995Z,1.16
2023-01-19T00:42:40.825Z,1.20
2023-01-19T00:46:42.390Z,1.19
2023-01-19T00:50:43.813Z,1.17
2023-01-19T00:54:45.388Z,1.32
2023-01-19T00:58:46.825Z,1.42
2023-01-19T01:02:50.703Z,1.48
2023-01-19T01:06:52.172Z,1.19
2023-01-19T01:10:54.631Z,1.34
2023-01-19T01:14:56.092Z,1.21
2023-01-19T01:18:57.552Z,1.27
2023-01-19T01:22:59.367Z,1.41
2023-01-19T01:27:01.097Z,1.20
2023-01-19T01:31:02.536Z,1.39
2023-01-19T01:35:04.523Z,1.28
2023-01-19T01:39:06.058Z,1.55
2023-01-19T01:43:12.954Z,1.00
2023-01-19T01:47:14.464Z,1.63
2023-01-19T01:51:25.823Z,1.15
2023-01-19T01:55:29.392Z,1.34
2023-01-19T01:59:39.111Z,1.41
2023-01-19T02:03:40.954Z,1.63
2023-01-19T02:08:11.186Z,1.46
2023-01-19T02:12:32.056Z,1.50
2023-01-19T02:16:36.612Z,1.56
2023-01-19T02:20:43.004Z,1.32
2023-01-19T02:24:44.776Z,1.62
2023-01-19T02:28:59.155Z,1.43
2023-01-19T02:33:01.143Z,1.41
2023-01-19T02:37:08.405Z,1.76
2023-01-19T02:41:15.026Z,1.53
2023-01-19T02:45:20.838Z,1.54
2023-01-19T02:49:22.693Z,1.33
2023-01-19T02:53:42.634Z,1.20
2023-01-19T02:57:51.563Z,1.48
2023-01-19T03:02:17.548Z,1.42
2023-01-19T03:06:33.162Z,1.32
2023-01-19T03:10:45.181Z,1.46
2023-01-19T03:14:48.555Z,1.17
2023-01-19T03:18:55.333Z,1.68
2023-01-19T03:23:02.297Z,1.67
2023-01-19T03:27:10.552Z,1.90
2023-01-19T03:31:28.091Z,2.03
2023-01-19T03:35:33.535Z,2.05
2023-01-19T03:39:35.054Z,2.28
2023-01-19T03:43:39.033Z,2.02
2023-01-19T03:47:40.953Z,2.27
2023-01-19T03:51:42.528Z,2.04
2023-01-19T03:55:48.342Z,1.90
2023-01-19T03:59:49.820Z,2.15
2023-01-19T04:03:52.662Z,1.98
2023-01-19T04:07:54.150Z,2.20
2023-01-19T04:11:57.133Z,1.92
2023-01-19T04:16:02.646Z,1.93
2023-01-19T04:20:04.668Z,2.00
2023-01-19T04:24:06.564Z,2.25
2023-01-19T04:28:08.046Z,2.25
2023-01-19T04:32:09.496Z,2.35
2023-01-19T04:36:10.949Z,2.40
2023-01-19T04:40:12.596Z,2.55
2023-01-19T04:44:14.571Z,2.72
2023-01-19T04:48:18.715Z,2.51
2023-01-19T04:52:20.286Z,2.74
2023-01-19T04:56:21.742Z,2.36
2023-01-19T05:00:23.547Z,2.45
2023-01-19T05:04:25.645Z,2.56
2023-01-19T05:08:27.093Z,2.57
2023-01-19T05:12:28.558Z,2.83
2023-01-19T05:16:30.038Z,2.86
2023-01-19T05:20:31.537Z,2.89
2023-01-19T05:24:33.256Z,3.05
2023-01-19T05:28:34.956Z,2.89
2023-01-19T05:32:36.649Z,2.70
2023-01-19T05:36:38.247Z,2.78
2023-01-19T05:40:39.687Z,2.64
2023-01-19T05:44:41.125Z,2.65
2023-01-19T05:48:42.603Z,2.72
2023-01-19T05:52:44.513Z,2.75
2023-01-19T05:56:46.072Z,2.65
2023-01-19T06:00:47.523Z,2.91
2023-01-19T06:04:48.975Z,2.71
2023-01-19T06:08:50.422Z,3.00
2023-01-19T06:12:52.435Z,2.77
2023-01-19T06:16:53.907Z,2.66
2023-01-19T06:20:58.670Z,2.73
2023-01-19T06:25:00.288Z,2.64
2023-01-19T06:29:01.692Z,2.70
2023-01-19T06:33:03.366Z,2.72
2023-01-19T06:37:05.129Z,2.55
2023-01-19T06:41:06.568Z,2.72
2023-01-19T06:45:09.997Z,2.96
2023-01-19T06:49:11.417Z,2.88
2023-01-19T06:53:13.395Z,3.00
2023-01-19T06:57:15.141Z,3.07
2023-01-19T07:01:16.848Z,2.94
2023-01-19T07:05:18.529Z,2.96
2023-01-19T07:09:20.385Z,2.55
2023-01-19T07:13:21.889Z,2.46
2023-01-19T07:17:23.413Z,2.80
2023-01-19T07:21:24.917Z,3.03
2023-01-19T07:25:27.015Z,2.99
2023-01-19T07:29:28.707Z,2.93
2023-01-19T07:33:30.210Z,2.96
2023-01-19T07:37:31.628Z,2.87
2023-01-19T07:41:33.157Z,2.74
2023-01-19T07:45:35.291Z,2.92
2023-01-19T07:49:36.748Z,2.75
2023-01-19T07:53:38.380Z,2.58
2023-01-19T07:57:39.786Z,3.15
2023-01-19T08:01:41.371Z,3.00
2023-01-19T08:05:42.917Z,3.08
2023-01-19T08:09:44.321Z,2.80
2023-01-19T08:13:45.745Z,2.95
2023-01-19T08:17:54.653Z,3.24
2023-01-19T08:21:56.490Z,3.08
2023-01-19T08:25:58.009Z,3.29
2023-01-19T08:29:59.933Z,3.15
2023-01-19T08:34:01.458Z,3.53
2023-01-19T08:38:04.852Z,3.75
2023-01-19T08:42:06.318Z,3.50
2023-01-19T08:46:07.811Z,3.54
2023-01-19T08:50:10.687Z,3.74
2023-01-19T08:54:12.480Z,3.75
2023-01-19T08:58:13.916Z,4.09
2023-01-19T09:02:15.394Z,4.04
2023-01-19T09:06:18.360Z,4.18
2023-01-19T09:10:20.028Z,4.16
2023-01-19T09:14:21.502Z,4.24
2023-01-19T09:18:23.332Z,4.16
2023-01-19T09:22:25.164Z,4.56
2023-01-19T09:26:27.037Z,4.41
2023-01-19T09:30:28.505Z,4.41
2023-01-19T09:34:31.150Z,4.79
2023-01-19T09:38:32.998Z,4.91
2023-01-19T09:42:43.762Z,5.30
2023-01-19T09:46:45.343Z,5.20
2023-01-19T09:50:48.387Z,5.25
2023-01-19T09:54:54.555Z,4.93
2023-01-19T09:58:56.196Z,4.91
2023-01-19T10:03:12.554Z,5.01
2023-01-19T10:07:39.230Z,4.55
2023-01-19T10:11:53.013Z,4.25
2023-01-19T10:16:16.676Z,4.30
2023-01-19T10:20:27.781Z,4.33
2023-01-19T10:24:40.107Z,4.21
2023-01-19T10:28:43.856Z,4.72
2023-01-19T10:32:46.247Z,4.40
2023-01-19T10:36:49.656Z,4.56
2023-01-19T10:41:18.636Z,4.44
2023-01-19T10:45:25.097Z,4.39
2023-01-19T10:49:30.127Z,4.57
2023-01-19T10:53:32.210Z,4.61
2023-01-19T10:57:40.985Z,4.77
2023-01-19T11:01:42.531Z,4.77
2023-01-19T11:05:44.578Z,5.08
2023-01-19T11:09:47.375Z,4.96
2023-01-19T11:14:12.802Z,4.93
2023-01-19T11:18:25.877Z,4.89
2023-01-19T11:22:32.987Z,4.93
2023-01-19T11:26:39.348Z,4.77
2023-01-19T11:30:54.641Z,4.97
2023-01-19T11:34:56.186Z,5.06
2023-01-19T11:39:24.260Z,4.86
2023-01-19T11:43:39.744Z,5.00
2023-01-19T11:47:50.247Z,5.24
2023-01-19T11:52:20.755Z,5.04
2023-01-19T11:56:26.352Z,5.32
2023-01-19T12:00:36.068Z,5.55
2023-01-19T12:04:39.016Z,5.68
2023-01-19T12:08:48.209Z,6.03
2023-01-19T12:12:52.236Z,6.09
2023-01-19T12:16:58.239Z,6.12
2023-01-19T12:21:01.296Z,6.05
2023-01-19T12:25:12.847Z,5.70
2023-01-19T12:29:18.078Z,5.93
2023-01-19T12:33:28.995Z,5.87
2023-01-19T12:37:37.872Z,5.96
2023-01-19T12:41:41.022Z,5.82
2023-01-19T12:45:44.980Z,5.41
2023-01-19T12:50:00.415Z,5.74
2023-01-19T12:54:06.813Z,5.64
2023-01-19T12:58:18.559Z,5.44
2023-01-19T13:02:20.073Z,5.15
2023-01-19T13:06:48.535Z,5.59
2023-01-19T13:11:02.182Z,5.42
2023-01-19T13:15:33.665Z,5.43
2023-01-19T13:19:44.138Z,5.39
2023-01-19T13:23:51.519Z,5.44
2023-01-19T13:27:53.198Z,5.40
2023-01-19T13:32:02.461Z,5.24
2023-01-19T13:36:04.218Z,5.31
2023-01-19T13:40:06.664Z,5.14
2023-01-19T13:44:14.806Z,5.03
2023-01-19T13:48:19.104Z,5.05
2023-01-19T13:52:27.491Z,4.90
2023-01-19T13:56:30.088Z,5.18
2023-01-19T14:00:33.423Z,5.34
2023-01-19T14:04:35.394Z,5.29
2023-01-19T14:08:37.066Z,5.39
2023-01-19T14:12:51.192Z,5.38
2023-01-19T14:17:00.079Z,5.27
2023-01-19T14:21:16.583Z,5.31
2023-01-19T14:25:21.888Z,4.87
2023-01-19T14:29:33.106Z,5.18
2023-01-19T14:33:43.538Z,5.08
2023-01-19T14:37:49.184Z,5.09
2023-01-19T14:41:52.792Z,4.71
2023-01-19T14:45:54.840Z,4.77
2023-01-19T14:50:01.984Z,5.17
2023-01-19T14:54:04.849Z,5.02
2023-01-19T14:58:14.509Z,4.97
2023-01-19T15:02:19.060Z,5.02
2023-01-19T15:06:21.346Z,4.87
2023-01-19T15:10:25.065Z,5.16
2023-01-19T15:14:27.753Z,4.81
2023-01-19T15:18:30.210Z,5.06
2023-01-19T15:22:31.606Z,5.21
2023-01-19T15:26:33.039Z,5.04
2023-01-19T15:30:34.509Z,4.92
2023-01-19T15:34:35.975Z,4.99
2023-01-19T15:38:37.386Z,5.08
2023-01-19T15:42:39.017Z,5.11
2023-01-19T15:46:40.548Z,4.85
2023-01-19T15:50:44.199Z,4.83
2023-01-19T15:54:45.640Z,4.97
2023-01-19T15:58:47.490Z,5.08
2023-01-19T16:02:50.122Z,5.12
2023-01-19T16:06:51.662Z,5.00
2023-01-19T16:10:53.091Z,5.04
2023-01-19T16:14:54.503Z,4.86
2023-01-19T16:18:56.704Z,4.56
2023-01-19T16:23:09.662Z,4.81
2023-01-19T16:27:15.611Z,4.67
2023-01-19T16:31:17.077Z,4.82
2023-01-19T16:35:18.713Z,5.03
2023-01-19T16:39:20.157Z,4.97
2023-01-19T16:43:21.552Z,4.86
2023-01-19T16:47:23.085Z,4.85
2023-01-19T16:51:24.721Z,4.98
2023-01-19T16:55:26.191Z,4.85
2023-01-19T16:59:29.017Z,4.84
2023-01-19T17:03:30.504Z,5.18
2023-01-19T17:07:31.962Z,4.85
2023-01-19T17:11:34.815Z,4.57
2023-01-19T17:15:36.328Z,4.74
2023-01-19T17:19:37.846Z,4.71
2023-01-19T17:23:43.123Z,4.87
2023-01-19T17:27:44.557Z,5.08
2023-01-19T17:31:46.739Z,5.01
2023-01-19T17:35:48.757Z,4.82
2023-01-19T17:39:50.233Z,4.73
2023-01-19T17:43:52.353Z,4.94
2023-01-19T17:47:53.792Z,5.06
2023-01-19T17:51:55.744Z,4.68
2023-01-19T17:56:07.143Z,4.72
2023-01-19T18:00:09.477Z,4.95
2023-01-19T18:04:13.912Z,4.86
2023-01-19T18:08:15.314Z,4.73
2023-01-19T18:12:16.885Z,4.82
2023-01-19T18:16:22.218Z,4.80
2023-01-19T18:20:23.709Z,4.66
2023-01-19T18:24:25.564Z,4.89
2023-01-19T18:28:27.405Z,4.75
2023-01-19T18:32:28.833Z,4.58
2023-01-19T18:36:32.515Z,4.45
2023-01-19T18:40:34.011Z,4.33
2023-01-19T18:44:35.695Z,4.20
2023-01-19T18:48:38.285Z,4.02
2023-01-19T18:52:40.162Z,3.98
2023-01-19T18:56:41.653Z,4.00
2023-01-19T19:00:43.057Z,4.10
2023-01-19T19:04:44.545Z,3.98
2023-01-19T19:08:57.264Z,3.88
2023-01-19T19:12:59.740Z,3.87
2023-01-19T19:17:01.214Z,3.87
2023-01-19T19:21:07.525Z,3.93
2023-01-19T19:25:09.376Z,4.04
2023-01-19T19:29:11.870Z,4.03
2023-01-19T19:33:13.433Z,4.24
2023-01-19T19:37:15.337Z,4.15
2023-01-19T19:41:22.135Z,4.04
2023-01-19T19:45:23.540Z,4.04
2023-01-19T19:49:26.220Z,3.75
2023-01-19T19:53:27.684Z,3.95
2023-01-19T19:57:29.089Z,3.86
2023-01-19T20:01:33.614Z,3.97
2023-01-19T20:05:35.775Z,4.04
2023-01-19T20:09:37.348Z,4.11
2023-01-19T20:13:40.044Z,4.11
2023-01-19T20:17:41.437Z,3.86
2023-01-19T20:21:43.203Z,3.80
2023-01-19T20:25:44.989Z,3.99
2023-01-19T20:29:52.572Z,3.85
2023-01-19T20:33:56.624Z,3.84
2023-01-19T20:37:58.095Z,3.94
2023-01-19T20:41:59.533Z,3.53
2023-01-19T20:46:01.497Z,3.34
2023-01-19T20:50:04.090Z,3.60
2023-01-19T20:54:05.550Z,3.36
2023-01-19T20:58:07.064Z,3.18
2023-01-19T21:02:14.166Z,3.29
2023-01-19T21:06:16.306Z,3.35
2023-01-19T21:10:18.174Z,3.34
2023-01-19T21:14:19.645Z,3.17
2023-01-19T21:18:21.139Z,3.05
2023-01-19T21:22:22.613Z,3.21
2023-01-19T21:26:24.249Z,2.90
2023-01-19T21:30:25.751Z,2.96
2023-01-19T21:34:27.183Z,2.76
2023-01-19T21:38:29.809Z,2.90
2023-01-19T21:42:31.279Z,2.97
2023-01-19T21:46:33.935Z,3.05
2023-01-19T21:50:35.780Z,2.92
2023-01-19T21:54:37.285Z,2.69
2023-01-19T21:58:38.792Z,2.67
2023-01-19T22:02:41.040Z,2.76
2023-01-19T22:06:42.643Z,2.88
2023-01-19T22:10:44.191Z,2.99
2023-01-19T22:14:45.604Z,2.84
2023-01-19T22:18:53.843Z,2.83
2023-01-19T22:22:56.296Z,2.93
2023-01-19T22:26:57.736Z,2.91
2023-01-19T22:31:07.571Z,2.89
2023-01-19T22:35:09.271Z,2.55
2023-01-19T22:39:12.149Z,2.63
2023-01-19T22:43:13.549Z,2.38
2023-01-19T22:47:14.960Z,2.54
2023-01-19T22:51:17.388Z,2.73
2023-01-19T22:55:18.863Z,2.43
2023-01-19T22:59:20.625Z,2.43
2023-01-19T23:03:22.069Z,2.46
2023-01-19T23:07:23.627Z,2.52
2023-01-19T23:11:34.226Z,2.41
2023-01-19T23:15:36.960Z,2.37
2023-01-19T23:19:38.430Z,2.38
2023-01-19T23:23:40.934Z,2.21
2023-01-19T23:27:42.336Z,2.53
2023-01-19T23:31:46.422Z,2.35
2023-01-19T23:35:47.981Z,2.35
2023-01-19T23:39:49.411Z,2.30
2023-01-19T23:43:51.678Z,2.54
2023-01-19T23:47:53.078Z,2.64
2023-01-19T23:51:54.515Z,2.63
2023-01-19T23:55:55.962Z,2.20
2023-01-19T23:59:57.394Z,2.21
